Time;durP1;ratioP1;P1;durP2;ratioP2;P2;SDS_P1;SDS_P2;PMS_P1;PMS_P2;Temp;Humidity;BMP_temperature;BMP_pressure;BME280_temperature;BME280_humidity;BME280_pressure;Samples;Min_cycle;Max_cycle;Signal;HPM_P1;HPM_P2
2022/04/14 00:02:04;;;;;;;34.43;26.80;;;;;;;8.37;100.00;97292.92;1712787;83;21022;-74
2022/04/14 00:04:35;;;;;;;35.97;27.60;;;;;;;8.34;100.00;97287.47;1712551;83;21127;-73
2022/04/14 00:07:03;;;;;;;34.97;25.20;;;;;;;8.33;100.00;97300.63;1713203;83;21059;-74
2022/04/14 00:09:35;;;;;;;35.43;27.33;;;;;;;8.32;100.00;97308.42;1712262;83;21086;-74
2022/04/14 00:12:03;;;;;;;29.90;21.87;;;;;;;8.32;100.00;97318.34;1712923;83;21517;-74
2022/04/14 00:14:30;;;;;;;30.43;23.57;;;;;;;8.31;100.00;97321.56;1712680;83;20999;-74
2022/04/14 00:16:58;;;;;;;33.83;23.43;;;;;;;8.29;100.00;97320.97;1712343;83;21062;-73
2022/04/14 00:19:26;;;;;;;34.10;22.93;;;;;;;8.28;100.00;97326.05;1712759;83;21077;-74
2022/04/14 00:21:53;;;;;;;32.50;23.63;;;;;;;8.27;100.00;97327.11;1712555;83;21554;-72
2022/04/14 00:24:21;;;;;;;32.37;23.03;;;;;;;8.26;100.00;97330.02;1712297;83;21083;-73
2022/04/14 00:26:50;;;;;;;32.13;24.13;;;;;;;8.25;100.00;97346.70;1712572;83;21011;-74
2022/04/14 00:29:18;;;;;;;29.90;23.27;;;;;;;8.24;100.00;97351.77;1714531;83;21057;-74
2022/04/14 00:31:46;;;;;;;48.20;34.03;;;;;;;8.24;100.00;97355.00;1714713;84;21110;-73
2022/04/14 00:34:13;;;;;;;75.80;46.33;;;;;;;8.22;100.00;97360.59;1715978;84;21133;-74
2022/04/14 00:36:41;;;;;;;44.07;29.67;;;;;;;8.21;100.00;97372.92;1750437;80;21554;-73
2022/04/14 00:41:37;;;;;;;71.13;46.63;;;;;;;8.20;100.00;97385.57;1710224;84;21036;-73
2022/04/14 00:44:06;;;;;;;32.83;22.13;;;;;;;8.17;100.00;97386.82;1710061;84;21068;-75
2022/04/14 00:46:33;;;;;;;32.93;23.73;;;;;;;8.17;100.00;97388.70;1710293;83;21091;-72
2022/04/14 00:49:00;;;;;;;32.43;24.07;;;;;;;8.14;100.00;97388.63;1709998;83;21053;-74
2022/04/14 00:51:28;;;;;;;35.80;25.10;;;;;;;8.14;100.00;97399.89;1710512;84;21537;-74
2022/04/14 00:53:56;;;;;;;36.07;27.20;;;;;;;8.11;100.00;97399.83;1710108;84;22343;-74
2022/04/14 00:56:23;;;;;;;36.70;26.30;;;;;;;8.11;100.00;97403.86;1710372;84;21083;-74
2022/04/14 00:58:51;;;;;;;36.87;27.73;;;;;;;8.12;100.00;97410.06;1709957;84;21076;-74
2022/04/14 01:01:20;;;;;;;31.20;22.70;;;;;;;8.11;100.00;97416.47;1710380;83;21012;-73
2022/04/14 01:03:49;;;;;;;33.17;23.87;;;;;;;8.09;100.00;97414.53;1687347;84;21087;-74
2022/04/14 01:06:19;;;;;;;32.03;24.33;;;;;;;8.08;100.00;97428.52;1710110;84;21080;-74
2022/04/14 01:11:34;;;;;;;27.50;19.33;;;;;;;8.07;100.00;97428.20;1710187;84;21056;-72
2022/04/14 01:14:03;;;;;;;26.33;19.03;;;;;;;8.06;100.00;97440.56;1687165;84;21056;-74
2022/04/14 01:16:30;;;;;;;27.20;19.03;;;;;;;8.05;100.00;97445.09;1710229;84;21048;-74
2022/04/14 01:18:59;;;;;;;25.30;17.60;;;;;;;8.05;100.00;97446.97;1709875;84;21060;-73
2022/04/14 01:21:33;;;;;;;25.67;18.50;;;;;;;8.04;100.00;97458.77;1710084;83;21060;-75
2022/04/14 01:23:58;;;;;;;26.67;17.80;;;;;;;8.02;100.00;97454.97;1662989;86;21535;-74
2022/04/14 01:26:26;;;;;;;28.33;17.87;;;;;;;8.02;100.00;97454.97;1663891;86;21942;-73
2022/04/14 01:28:53;;;;;;;24.93;17.60;;;;;;;8.00;100.00;97467.80;1663409;86;21026;-72
2022/04/14 01:31:20;;;;;;;24.77;17.53;;;;;;;8.00;100.00;97477.22;1657089;86;21047;-72
2022/04/14 01:33:48;;;;;;;24.27;17.87;;;;;;;7.98;100.00;97484.19;1647881;86;21027;-75
2022/04/14 01:36:16;;;;;;;26.40;18.43;;;;;;;7.98;100.00;97484.19;1636013;87;21086;-74
2022/04/14 01:38:44;;;;;;;27.40;18.23;;;;;;;7.98;100.00;97487.38;1643957;87;21052;-74
2022/04/14 01:41:11;;;;;;;26.17;18.43;;;;;;;7.97;100.00;97490.59;1643211;86;21047;-74
2022/04/14 01:43:38;;;;;;;27.40;18.70;;;;;;;7.96;100.00;97495.66;1653668;87;21067;-74
2022/04/14 01:46:08;;;;;;;26.83;20.10;;;;;;;7.94;100.00;97506.34;1666075;86;21057;-74
2022/04/14 01:48:39;;;;;;;27.40;19.03;;;;;;;7.95;100.00;97507.48;1653670;87;21016;-74
2022/04/14 01:51:08;;;;;;;28.90;20.27;;;;;;;7.95;100.00;97517.40;1666128;86;21102;-73
2022/04/14 01:53:35;;;;;;;27.60;19.03;;;;;;;7.94;100.00;97522.49;1653731;87;21577;-75
2022/04/14 01:56:05;;;;;;;27.57;18.97;;;;;;;7.93;100.00;97530.25;1665975;86;21059;-74
2022/04/14 01:58:32;;;;;;;27.20;18.33;;;;;;;7.94;100.00;97533.26;1653685;87;21623;-74
2022/04/14 02:00:59;;;;;;;24.80;17.07;;;;;;;7.94;100.00;97544.02;1665671;86;21087;-72
2022/04/14 02:03:27;;;;;;;28.37;17.93;;;;;;;7.92;100.00;97545.58;1653766;87;21067;-74
2022/04/14 02:05:55;;;;;;;26.50;17.30;;;;;;;7.91;100.00;97546.60;1665780;86;21063;-73
2022/04/14 02:08:23;;;;;;;27.33;18.30;;;;;;;7.91;100.00;97565.44;1653643;87;21145;-74
2022/04/14 02:10:50;;;;;;;25.97;17.53;;;;;;;7.90;100.00;97558.95;1665780;86;21071;-73
2022/04/14 02:13:17;;;;;;;24.80;17.73;;;;;;;7.89;100.00;97568.05;1653826;87;21084;-73
2022/04/14 02:15:45;;;;;;;26.50;17.87;;;;;;;7.89;100.00;97572.09;1665799;86;21069;-75
2022/04/14 02:18:14;;;;;;;25.63;17.97;;;;;;;7.88;100.00;97575.80;1653953;87;21588;-74
2022/04/14 02:20:42;;;;;;;25.87;18.23;;;;;;;7.88;100.00;97575.80;1695901;83;21463;-73
2022/04/14 02:23:10;;;;;;;26.37;18.57;;;;;;;7.87;100.00;97590.31;1752723;82;21022;-74
2022/04/14 02:25:38;;;;;;;28.17;19.37;;;;;;;7.87;100.00;97587.63;1752850;82;21010;-75
2022/04/14 02:28:05;;;;;;;29.00;20.33;;;;;;;7.86;100.00;97600.75;1757144;81;21061;-73
2022/04/14 02:33:02;;;;;;;28.40;18.57;;;;;;;7.84;100.00;97607.69;1729531;82;21073;-73
2022/04/14 02:35:30;;;;;;;27.50;18.47;;;;;;;7.84;100.00;97603.66;1747454;82;21538;-74
2022/04/14 02:37:57;;;;;;;28.40;19.20;;;;;;;7.85;100.00;97601.81;1743669;82;20994;-76
2022/04/14 02:40:25;;;;;;;29.93;18.33;;;;;;;7.84;100.00;97614.95;1737683;82;21014;-75
2022/04/14 02:42:57;;;;;;;27.70;18.37;;;;;;;7.82;100.00;97617.84;1737695;82;21547;-75
2022/04/14 02:45:25;;;;;;;27.60;17.90;;;;;;;7.82;100.00;97631.83;1737681;82;20996;-75
2022/04/14 02:47:52;;;;;;;27.27;18.67;;;;;;;7.81;100.00;97631.01;1713383;82;21041;-74
2022/04/14 02:50:21;;;;;;;28.07;18.80;;;;;;;7.79;100.00;97641.98;1737513;83;21114;-75
2022/04/14 02:52:49;;;;;;;27.80;17.47;;;;;;;7.79;100.00;97646.02;1737922;82;21523;-74
2022/04/14 02:55:19;;;;;;;26.80;18.77;;;;;;;7.79;100.00;97650.55;1713557;82;21025;-74
2022/04/14 02:57:49;;;;;;;26.37;17.53;;;;;;;7.78;100.00;97663.70;1737778;82;21013;-73
2022/04/14 03:00:17;;;;;;;26.17;16.47;;;;;;;7.76;100.00;97667.95;1737552;82;21054;-73
2022/04/14 03:02:46;;;;;;;25.77;16.30;;;;;;;7.76;100.00;97679.23;1737622;82;21018;-74
2022/04/14 03:05:13;;;;;;;25.60;17.83;;;;;;;7.74;100.00;97685.35;1737478;83;21045;-72
2022/04/14 03:07:41;;;;;;;25.93;17.33;;;;;;;7.72;100.00;97690.94;1737582;83;21079;-73
2022/04/14 03:10:10;;;;;;;25.50;16.97;;;;;;;7.71;100.00;97701.38;1737418;83;21066;-73
2022/04/14 03:12:49;;;;;;;28.13;17.07;;;;;;;7.69;100.00;97703.45;1737584;82;21535;-73
2022/04/14 03:15:18;;;;;;;24.30;16.80;;;;;;;7.67;100.00;97710.91;1738121;82;21573;-74
2022/04/14 03:17:50;;;;;;;26.60;17.40;;;;;;;7.66;100.00;97718.66;1738685;82;21038;-72
2022/04/14 03:20:17;;;;;;;25.00;16.23;;;;;;;7.65;100.00;97722.90;1714176;83;21012;-73
2022/04/14 03:22:44;;;;;;;25.27;15.73;;;;;;;7.62;100.00;97724.16;1737736;82;21676;-75
2022/04/14 03:25:13;;;;;;;26.23;17.27;;;;;;;7.60;100.00;97732.43;1737391;83;21041;-75
2022/04/14 03:27:41;;;;;;;26.57;16.97;;;;;;;7.58;100.00;97738.54;1737518;82;21034;-74
2022/04/14 03:30:10;;;;;;;29.87;18.37;;;;;;;7.56;100.00;97740.62;1763743;81;21076;-73
2022/04/14 03:32:46;;;;;;;26.87;17.57;;;;;;;7.56;100.00;97743.80;1778237;81;20983;-73
2022/04/14 03:35:13;;;;;;;29.73;19.13;;;;;;;7.55;100.00;97754.27;1751411;82;22266;-73
2022/04/14 03:37:40;;;;;;;29.00;19.33;;;;;;;7.55;100.00;97759.12;1750956;80;21060;-72
2022/04/14 03:40:08;;;;;;;26.80;17.80;;;;;;;7.55;100.00;97773.09;1746082;81;21052;-72
2022/04/14 03:42:36;;;;;;;26.70;17.53;;;;;;;7.54;100.00;97776.80;1765626;81;21060;-74
2022/04/14 03:45:07;;;;;;;27.77;17.70;;;;;;;7.51;100.00;97783.44;1765462;81;21048;-74
2022/04/14 03:47:34;;;;;;;27.00;18.00;;;;;;;7.51;100.00;97790.68;1765308;81;21020;-73
2022/04/14 03:50:02;;;;;;;27.17;17.40;;;;;;;7.50;100.00;97797.91;1765457;81;22232;-73
2022/04/14 03:52:31;;;;;;;26.40;17.13;;;;;;;7.49;100.00;97796.27;1765449;81;21016;-74
2022/04/14 03:54:59;;;;;;;31.47;17.63;;;;;;;7.48;100.00;97804.00;1746053;81;21053;-73
2022/04/14 03:57:27;;;;;;;26.13;17.60;;;;;;;7.47;100.00;97809.09;1765425;80;21514;-72
2022/04/14 03:59:54;;;;;;;28.53;17.60;;;;;;;7.44;100.00;97818.91;1746013;81;21017;-74
2022/04/14 04:02:21;;;;;;;28.23;17.50;;;;;;;7.43;100.00;97828.52;1765625;81;21032;-73
2022/04/14 04:04:50;;;;;;;31.27;19.47;;;;;;;7.41;100.00;97826.84;1746379;81;21072;-73
2022/04/14 04:07:17;;;;;;;28.97;18.73;;;;;;;7.40;100.00;97840.00;1746129;81;21513;-74
2022/04/14 04:09:46;;;;;;;29.37;17.97;;;;;;;7.40;100.00;97851.25;1765004;81;21025;-74
2022/04/14 04:12:13;;;;;;;24.93;16.40;;;;;;;7.40;100.00;97853.44;1746483;81;21072;-74
2022/04/14 04:14:42;;;;;;;25.50;16.67;;;;;;;7.37;100.00;97861.91;1745949;81;21276;-75
2022/04/14 04:17:09;;;;;;;25.37;16.63;;;;;;;7.35;100.00;97868.01;1765351;81;21075;-75
2022/04/14 04:19:38;;;;;;;24.53;15.83;;;;;;;7.33;100.00;97880.83;1746380;81;20989;-75
2022/04/14 04:22:07;;;;;;;26.33;16.40;;;;;;;7.30;100.00;97877.20;1741953;82;21058;-73
2022/04/14 04:24:35;;;;;;;26.27;16.23;;;;;;;7.29;100.00;97885.46;1741912;82;21038;-73
2022/04/14 04:27:05;;;;;;;25.30;15.80;;;;;;;7.29;100.00;97886.80;1708440;84;21062;-74
2022/04/14 04:29:33;;;;;;;25.67;16.10;;;;;;;7.29;100.00;97898.91;1716311;84;21119;-75
2022/04/14 04:32:01;;;;;;;26.67;16.63;;;;;;;7.28;100.00;97904.80;1741982;82;21105;-76
2022/04/14 04:34:28;;;;;;;28.23;17.07;;;;;;;7.27;100.00;97901.79;1702984;84;21551;-74
2022/04/14 04:36:55;;;;;;;27.33;16.63;;;;;;;7.26;100.00;97913.59;1697869;84;21007;-74
2022/04/14 04:39:22;;;;;;;25.73;16.53;;;;;;;7.26;100.00;97906.87;1697751;84;21555;-74
2022/04/14 04:41:49;;;;;;;33.13;20.33;;;;;;;7.25;100.00;97915.95;1673043;84;21022;-74
2022/04/14 04:44:17;;;;;;;27.50;18.43;;;;;;;7.25;100.00;97928.57;1690614;84;21034;-74
2022/04/14 04:46:44;;;;;;;26.80;16.87;;;;;;;7.22;100.00;97927.95;1733288;82;21038;-75
2022/04/14 04:49:12;;;;;;;26.93;17.50;;;;;;;7.25;100.00;97919.16;1722349;82;21074;-74
2022/04/14 04:51:39;;;;;;;27.03;17.63;;;;;;;7.27;100.00;97927.33;1692756;83;21062;-74
2022/04/14 04:54:06;;;;;;;24.70;16.43;;;;;;;7.26;100.00;97929.72;1745935;82;21058;-74
2022/04/14 04:56:33;;;;;;;25.27;16.83;;;;;;;7.27;100.00;97938.60;1723177;82;21652;-73
2022/04/14 04:59:00;;;;;;;27.70;19.77;;;;;;;7.25;100.00;97936.11;1692500;84;21031;-73
2022/04/14 05:01:28;;;;;;;26.33;17.97;;;;;;;7.24;100.00;97939.81;1722918;82;21081;-73
2022/04/14 05:03:56;;;;;;;36.87;23.83;;;;;;;7.22;100.00;97950.80;1746163;82;21495;-75
2022/04/14 05:06:24;;;;;;;37.77;24.87;;;;;;;7.22;100.00;97945.91;1754281;82;21038;-75
2022/04/14 05:08:51;;;;;;;32.33;21.53;;;;;;;7.20;100.00;97936.70;1725547;82;21060;-75
2022/04/14 05:11:23;;;;;;;26.80;17.43;;;;;;;7.19;100.00;97953.88;1699269;83;21035;-75
2022/04/14 05:13:51;;;;;;;33.00;20.37;;;;;;;7.17;100.00;97957.28;1723384;82;21492;-76
2022/04/14 05:16:18;;;;;;;26.83;17.00;;;;;;;7.16;100.00;97962.33;1723471;82;21047;-78
2022/04/14 05:18:47;;;;;;;25.73;17.50;;;;;;;7.16;100.00;97966.36;1723256;82;21062;-75
2022/04/14 05:21:14;;;;;;;31.00;20.03;;;;;;;7.18;100.00;97967.52;1725773;82;21000;-76
2022/04/14 05:23:42;;;;;;;26.97;17.40;;;;;;;7.19;100.00;97969.19;1720413;83;21084;-73
2022/04/14 05:26:10;;;;;;;26.90;17.17;;;;;;;7.21;100.00;97970.62;1737328;80;21026;-77
2022/04/14 05:28:37;;;;;;;27.07;17.50;;;;;;;7.24;100.00;97982.83;1759005;80;20982;-77
2022/04/14 05:31:06;;;;;;;26.27;17.10;;;;;;;7.23;100.00;97983.88;1721787;82;21028;-76
2022/04/14 05:33:34;;;;;;;28.57;17.37;;;;;;;7.26;100.00;97985.31;1721406;82;21012;-76
2022/04/14 05:36:01;;;;;;;25.50;16.63;;;;;;;7.26;100.00;97985.31;1744464;82;21095;-76
2022/04/14 05:38:28;;;;;;;26.10;17.03;;;;;;;7.26;100.00;97986.17;1745506;82;21045;-76
2022/04/14 05:40:57;;;;;;;26.13;17.23;;;;;;;7.29;100.00;97987.09;1749666;82;21041;-77
2022/04/14 05:43:30;;;;;;;29.37;18.00;;;;;;;7.35;100.00;97990.34;1720784;82;20978;-76
2022/04/14 05:45:57;;;;;;;27.60;17.48;;;;;;;7.38;100.00;97983.72;1730820;83;20987;-76
2022/04/14 05:48:26;;;;;;;27.60;18.40;;;;;;;7.42;100.00;97991.72;1752189;81;21053;-78
2022/04/14 05:50:53;;;;;;;32.03;22.37;;;;;;;7.43;100.00;97985.29;1730620;83;21046;-76
2022/04/14 05:53:26;;;;;;;32.03;21.67;;;;;;;7.45;100.00;97993.98;1723380;82;20990;-78
2022/04/14 05:55:54;;;;;;;28.10;18.30;;;;;;;7.48;100.00;97994.93;1702691;83;21037;-78
2022/04/14 05:58:21;;;;;;;27.77;19.40;;;;;;;7.49;100.00;97999.78;1722260;82;21072;-79
2022/04/14 06:00:48;;;;;;;41.07;25.40;;;;;;;7.49;100.00;97998.44;1749282;82;21041;-76
2022/04/14 06:03:16;;;;;;;27.63;18.97;;;;;;;7.49;100.00;98001.98;1729530;83;21077;-76
2022/04/14 06:05:44;;;;;;;26.90;18.37;;;;;;;7.49;100.00;98010.55;1751369;81;21021;-75
2022/04/14 06:08:12;;;;;;;27.33;17.07;;;;;;;7.49;100.00;98016.77;1729184;82;21429;-75
2022/04/14 06:10:39;;;;;;;30.73;20.00;;;;;;;7.51;100.00;98016.05;1722324;83;21066;-75
2022/04/14 06:13:06;;;;;;;28.87;18.43;;;;;;;7.54;100.00;98014.31;1722992;83;21030;-74
2022/04/14 06:15:33;;;;;;;29.17;19.27;;;;;;;7.60;100.00;98018.05;1694827;83;21065;-74
2022/04/14 06:18:00;;;;;;;25.97;17.27;;;;;;;7.66;100.00;98022.61;1722765;83;21098;-76
2022/04/14 06:20:28;;;;;;;27.03;17.13;;;;;;;7.68;100.00;98032.64;1694897;83;21109;-76
2022/04/14 06:22:58;;;;;;;31.37;20.53;;;;;;;7.71;100.00;98040.33;1724335;83;21533;-74
2022/04/14 06:25:25;;;;;;;77.57;38.13;;;;;;;7.71;100.00;98040.84;1722326;82;20983;-75
2022/04/14 06:27:55;;;;;;;88.13;42.83;;;;;;;7.73;100.00;98046.33;1749838;82;21018;-75
2022/04/14 06:30:22;;;;;;;27.53;17.87;;;;;;;7.74;100.00;98039.92;1746548;82;21705;-76
2022/04/14 06:32:56;;;;;;;50.03;31.90;;;;;;;7.75;100.00;98052.33;1746988;81;21555;-77
2022/04/14 06:35:23;;;;;;;46.40;30.00;;;;;;;7.77;100.00;98051.64;1766536;81;21034;-77
2022/04/14 06:37:52;;;;;;;29.83;19.17;;;;;;;7.79;100.00;98059.48;1747019;81;21051;-76
2022/04/14 06:40:21;;;;;;;34.23;22.47;;;;;;;7.82;100.00;98064.99;1765972;81;21051;-77
2022/04/14 06:42:49;;;;;;;31.60;20.43;;;;;;;7.82;100.00;98057.74;1765472;81;21015;-77
2022/04/14 06:45:17;;;;;;;38.47;23.57;;;;;;;7.83;100.00;98074.21;1732252;81;21065;-75
2022/04/14 06:47:44;;;;;;;49.00;26.83;;;;;;;7.84;100.00;98075.03;1744977;81;21376;-76
2022/04/14 06:50:13;;;;;;;28.63;17.87;;;;;;;7.84;100.00;98078.55;1766260;81;21042;-77
2022/04/14 06:52:41;;;;;;;24.87;15.50;;;;;;;7.83;100.00;98078.25;1764963;81;21504;-75
2022/04/14 06:55:09;;;;;;;27.27;17.33;;;;;;;7.83;100.00;98088.19;1730810;81;21614;-75
2022/04/14 06:57:36;;;;;;;29.73;18.80;;;;;;;7.82;100.00;98096.76;1764859;81;21073;-76
2022/04/14 07:00:07;;;;;;;25.30;16.47;;;;;;;7.84;100.00;98098.72;1765321;81;21046;-74
2022/04/14 07:02:49;;;;;;;25.43;14.30;;;;;;;7.87;100.00;98096.98;1732462;81;20980;-77
2022/04/14 07:05:16;;;;;;;22.13;13.80;;;;;;;7.90;100.00;98103.32;1663781;85;21527;-76
2022/04/14 07:07:45;;;;;;;24.37;14.83;;;;;;;7.92;100.00;98106.63;1685428;85;22274;-80
2022/04/14 07:10:13;;;;;;;25.03;14.47;;;;;;;7.96;100.00;98107.06;1658276;86;21056;-75
2022/04/14 07:12:42;;;;;;;23.20;13.80;;;;;;;8.02;100.00;98114.34;1658379;86;21605;-75
2022/04/14 07:15:11;;;;;;;24.10;14.87;;;;;;;8.08;100.00;98114.87;1686958;85;21055;-75
2022/04/14 07:17:39;;;;;;;25.23;16.03;;;;;;;8.17;100.00;98102.06;1684656;85;21128;-77
2022/04/14 07:20:09;;;;;;;24.13;14.77;;;;;;;8.21;100.00;98105.99;1657681;86;21055;-77
2022/04/14 07:22:49;;;;;;;22.37;14.47;;;;;;;8.25;100.00;98114.00;1685053;84;20982;-78
2022/04/14 07:25:16;;;;;;;21.93;14.40;;;;;;;8.26;100.00;98106.22;1657365;86;21086;-76
2022/04/14 07:27:44;;;;;;;22.87;14.80;;;;;;;8.26;100.00;98110.78;1651367;86;21071;-79
2022/04/14 07:30:12;;;;;;;23.57;15.20;;;;;;;8.24;100.00;98115.02;1657311;86;21070;-78
2022/04/14 07:32:45;;;;;;;23.43;14.53;;;;;;;8.26;100.00;98122.38;1657838;86;21063;-76
2022/04/14 07:35:13;;;;;;;24.17;14.87;;;;;;;8.31;100.00;98130.67;1652376;87;21034;-75
2022/04/14 07:37:40;;;;;;;25.73;15.27;;;;;;;8.36;100.00;98128.20;1662181;85;21041;-76
2022/04/14 07:40:08;;;;;;;24.30;15.87;;;;;;;8.43;100.00;98127.41;1642473;85;21065;-77
2022/04/14 07:42:38;;;;;;;22.57;14.13;;;;;;;8.47;100.00;98132.72;1668938;85;21102;-77
2022/04/14 07:45:06;;;;;;;24.03;15.27;;;;;;;8.51;100.00;98129.39;1645405;85;21021;-78
2022/04/14 07:47:35;;;;;;;24.33;16.07;;;;;;;8.56;100.00;98138.22;1623827;86;21119;-77
2022/04/14 07:50:02;;;;;;;24.00;15.27;;;;;;;8.56;100.00;98143.61;1669159;86;21124;-75
2022/04/14 07:52:30;;;;;;;22.70;14.63;;;;;;;8.59;100.00;98147.25;1669177;86;21076;-74
2022/04/14 07:54:57;;;;;;;21.90;14.93;;;;;;;8.59;100.00;98147.74;1668839;86;21091;-73
2022/04/14 07:57:26;;;;;;;22.97;15.23;;;;;;;8.57;100.00;98157.41;1668266;85;21041;-77
2022/04/14 07:59:54;;;;;;;26.17;15.83;;;;;;;8.54;100.00;98164.53;1671559;83;21084;-76
2022/04/14 08:02:22;;;;;;;21.87;13.83;;;;;;;8.56;100.00;98173.24;1771363;81;21354;-77
2022/04/14 08:04:51;;;;;;;27.47;15.87;;;;;;;8.55;100.00;98166.17;1702536;83;21065;-77
2022/04/14 08:07:18;;;;;;;24.60;15.40;;;;;;;8.59;100.00;98164.76;1773059;81;20994;-77
2022/04/14 08:09:46;;;;;;;24.17;15.03;;;;;;;8.67;100.00;98152.95;1773174;81;21429;-77
2022/04/14 08:12:14;;;;;;;23.23;13.93;;;;;;;8.77;100.00;98159.30;1751237;81;21030;-78
2022/04/14 08:14:42;;;;;;;23.57;14.20;;;;;;;8.85;100.00;98160.43;1772676;80;21089;-78
2022/04/14 08:17:11;;;;;;;25.80;16.87;;;;;;;8.94;100.00;98164.58;1773294;80;21070;-77
2022/04/14 08:19:40;;;;;;;27.83;19.13;;;;;;;8.97;100.00;98162.83;1772460;80;21025;-78
2022/04/14 08:22:10;;;;;;;25.00;17.30;;;;;;;8.99;100.00;98162.09;1752206;82;21056;-77
2022/04/14 08:24:38;;;;;;;27.23;16.80;;;;;;;9.07;100.00;98157.86;1752069;80;21049;-78
2022/04/14 08:27:06;;;;;;;32.93;17.97;;;;;;;9.18;100.00;98154.23;1759056;81;21022;-76
2022/04/14 08:29:33;;;;;;;22.47;13.30;;;;;;;9.29;100.00;98155.75;1759002;81;21014;-76
2022/04/14 08:32:01;;;;;;;23.90;14.47;;;;;;;9.37;100.00;98147.98;1778427;81;21460;-77
2022/04/14 08:34:28;;;;;;;20.93;13.10;;;;;;;9.43;100.00;98151.18;1726658;81;21459;-74
2022/04/14 08:36:57;;;;;;;20.30;12.40;;;;;;;9.48;100.00;98148.69;1725430;83;21073;-75
2022/04/14 08:39:25;;;;;;;19.20;12.33;;;;;;;9.54;100.00;98163.73;1751513;82;21081;-74
2022/04/14 08:41:59;;;;;;;21.87;13.57;;;;;;;9.57;100.00;98187.59;1746159;82;21038;-78
2022/04/14 08:44:29;;;;;;;24.10;14.60;;;;;;;9.54;100.00;98202.84;1712275;83;21094;-75
2022/04/14 08:46:55;;;;;;;23.33;12.43;;;;;;;9.46;100.00;98226.31;1746827;82;21061;-77
2022/04/14 08:49:22;;;;;;;19.60;12.43;;;;;;;9.34;100.00;98255.47;1715165;84;21062;-76
2022/04/14 08:51:50;;;;;;;21.47;13.57;;;;;;;9.27;100.00;98270.29;1714100;84;21067;-77
2022/04/14 08:54:19;;;;;;;20.27;12.43;;;;;;;9.24;100.00;98271.55;1746143;82;21603;-77
2022/04/14 08:56:48;;;;;;;20.63;11.97;;;;;;;9.29;100.00;98272.26;1712537;82;21111;-77
2022/04/14 08:59:17;;;;;;;19.57;12.33;;;;;;;9.34;100.00;98274.34;1744111;82;21057;-77
2022/04/14 09:01:45;;;;;;;20.87;12.77;;;;;;;9.38;100.00;98273.71;1690287;84;22368;-74
2022/04/14 09:04:13;;;;;;;22.60;13.13;;;;;;;9.47;100.00;98267.59;1712275;83;21102;-77
2022/04/14 09:06:40;;;;;;;22.73;13.43;;;;;;;9.57;100.00;98261.80;1745449;82;21010;-79
2022/04/14 09:09:09;;;;;;;22.33;13.30;;;;;;;9.67;100.00;98258.17;1746329;82;21097;-75
2022/04/14 09:11:39;;;;;;;22.47;12.93;;;;;;;9.85;100.00;98266.97;1693161;84;21015;-73
2022/04/14 09:14:07;;;;;;;21.15;12.85;;;;;;;10.03;100.00;98279.81;1746788;82;21088;-76
2022/04/14 09:16:34;;;;;;;19.20;11.93;;;;;;;10.11;100.00;98312.01;1683121;84;21062;-73
2022/04/14 09:19:02;;;;;;;21.07;11.15;;;;;;;10.06;100.00;98369.86;1723317;82;21607;-74
2022/04/14 09:21:29;;;;;;;20.25;11.75;;;;;;;9.87;100.00;98422.28;1715110;84;21085;-75
2022/04/14 09:23:59;;;;;;;19.93;11.67;;;;;;;9.69;100.00;98446.36;1746045;82;21073;-75
2022/04/14 09:26:30;;;;;;;20.10;11.65;;;;;;;9.53;100.00;98473.19;1746128;82;21083;-77
2022/04/14 09:29:08;;;;;;;20.07;12.00;;;;;;;9.41;100.00;98488.30;1745268;82;21061;-75
2022/04/14 09:31:50;;;;;;;17.87;11.33;;;;;;;9.36;100.00;98493.47;1723145;82;21005;-77
2022/04/14 09:34:19;;;;;;;19.13;11.47;;;;;;;9.36;100.00;98485.37;1721774;83;21085;-76
2022/04/14 09:37:08;;;;;;;20.60;12.47;;;;;;;9.37;100.00;98493.27;1724435;83;21179;-75
2022/04/14 09:39:51;;;;;;;21.30;12.40;;;;;;;9.46;100.00;98495.27;1691889;83;21125;-76
2022/04/14 09:42:19;;;;;;;19.40;11.37;;;;;;;9.50;100.00;98498.70;1649924;85;21002;-76
2022/04/14 09:44:46;;;;;;;20.47;11.57;;;;;;;9.53;100.00;98501.53;1635310;85;21102;-77
2022/04/14 09:47:35;;;;;;;19.60;12.03;;;;;;;9.56;100.00;98509.72;1685037;85;21165;-78
2022/04/14 09:50:13;;;;;;;18.60;11.57;;;;;;;9.55;100.00;98513.47;1662127;85;21600;-77
2022/04/14 09:53:05;;;;;;;24.13;12.50;;;;;;;9.54;100.00;98531.50;1676314;85;21039;-76
2022/04/14 09:55:43;;;;;;;20.60;11.83;;;;;;;9.58;100.00;98533.28;1685531;85;21094;-77
2022/04/14 09:58:19;;;;;;;20.23;12.43;;;;;;;9.59;100.00;98539.83;1661219;85;21105;-75
2022/04/14 10:00:51;;;;;;;19.20;11.47;;;;;;;9.57;100.00;98545.13;1685147;85;21075;-75
2022/04/14 10:03:20;;;;;;;20.07;11.80;;;;;;;9.50;100.00;98561.28;1678282;85;21538;-77
2022/04/14 10:05:51;;;;;;;17.47;10.63;;;;;;;9.44;100.00;98560.22;1661976;86;21071;-75
2022/04/14 10:08:19;;;;;;;18.20;10.70;;;;;;;9.39;100.00;98561.86;1582087;90;21128;-76
2022/04/14 10:10:48;;;;;;;20.20;11.17;;;;;;;9.31;100.00;98578.53;1602144;90;21122;-73
2022/04/14 10:13:18;;;;;;;18.93;11.33;;;;;;;9.27;100.00;98579.94;1601848;90;21126;-74
2022/04/14 10:15:48;;;;;;;20.40;12.77;;;;;;;9.28;100.00;98577.56;1601895;90;21117;-75
2022/04/14 10:18:17;;;;;;;18.10;11.73;;;;;;;9.40;100.00;98563.02;1581993;90;21039;-78
2022/04/14 10:20:47;;;;;;;18.63;10.90;;;;;;;9.53;100.00;98568.98;1581209;90;21067;-77
2022/04/14 10:23:15;;;;;;;19.53;11.37;;;;;;;9.55;100.00;98577.70;1559132;91;21100;-77
2022/04/14 10:25:43;;;;;;;21.07;12.57;;;;;;;9.52;100.00;98588.89;1557584;92;21133;-76
2022/04/14 10:28:15;;;;;;;20.43;12.18;;;;;;;9.45;100.00;98600.98;1614135;89;21087;-75
2022/04/14 10:30:52;;;;;;;18.95;10.80;;;;;;;9.44;100.00;98597.99;1613672;89;21055;-78
2022/04/14 10:33:17;;;;;;;28.23;13.83;;;;;;;9.46;100.00;98602.67;1618477;89;21081;-75
2022/04/14 10:35:44;;;;;;;19.93;10.80;;;;;;;9.52;100.00;98602.38;1620269;87;21097;-75
2022/04/14 10:38:30;;;;;;;19.50;11.00;;;;;;;9.58;100.00;98604.80;1599315;89;21033;-77
2022/04/14 10:41:17;;;;;;;17.43;10.77;;;;;;;9.60;100.00;98606.28;1619300;88;21541;-75
2022/04/14 10:43:46;;;;;;;19.87;10.70;;;;;;;9.59;100.00;98620.79;1619918;89;21111;-70
2022/04/14 10:46:15;;;;;;;17.60;10.60;;;;;;;9.54;100.00;98618.38;1620287;87;21080;-70
2022/04/14 10:48:46;;;;;;;20.03;11.27;;;;;;;9.54;100.00;98631.87;1620978;89;21111;-76
2022/04/14 10:51:21;;;;;;;20.40;12.10;;;;;;;9.54;100.00;98635.39;1619790;87;21064;-75
2022/04/14 10:53:57;;;;;;;22.53;13.13;;;;;;;9.58;100.00;98639.88;1618890;89;21107;-73
2022/04/14 10:56:44;;;;;;;22.67;13.67;;;;;;;9.60;100.00;98635.14;1619189;87;21167;-76
2022/04/14 10:59:15;;;;;;;20.97;13.50;;;;;;;9.65;100.00;98648.84;1619651;89;21143;-77
2022/04/14 11:01:52;;;;;;;20.15;11.60;;;;;;;9.70;100.00;98653.13;1615670;88;21063;-75
2022/04/14 11:04:44;;;;;;;18.80;11.23;;;;;;;9.69;100.00;98666.32;1592523;89;21134;-77
2022/04/14 11:07:13;;;;;;;21.33;12.70;;;;;;;9.62;100.00;98658.18;1643629;87;21062;-76
2022/04/14 11:09:52;;;;;;;19.73;10.73;;;;;;;9.52;100.00;98668.49;1642713;87;21088;-77
2022/04/14 11:12:42;;;;;;;19.27;11.27;;;;;;;9.44;100.00;98678.11;1620951;87;21633;-78
2022/04/14 11:15:10;;;;;;;18.80;10.90;;;;;;;9.40;100.00;98680.37;1621169;87;21100;-75
2022/04/14 11:17:51;;;;;;;18.17;11.03;;;;;;;9.38;100.00;98678.88;1642679;87;21085;-75
2022/04/14 11:20:24;;;;;;;18.30;10.77;;;;;;;9.34;100.00;98687.05;1621043;87;21097;-75
2022/04/14 11:25:53;;;;;;;20.03;11.50;;;;;;;9.23;100.00;98696.52;1627873;87;21529;-75
2022/04/14 11:28:33;;;;;;;17.70;10.80;;;;;;;9.13;100.00;98699.53;1679615;85;21641;-74
2022/04/14 11:31:23;;;;;;;18.33;10.87;;;;;;;9.07;100.00;98701.16;1696770;84;21157;-72
2022/04/14 11:33:53;;;;;;;20.07;12.13;;;;;;;9.00;100.00;98700.78;1673767;84;21564;-73
2022/04/14 11:36:25;;;;;;;22.37;13.23;;;;;;;8.96;100.00;98707.08;1675284;84;21030;-74
2022/04/14 11:39:01;;;;;;;18.67;11.70;;;;;;;8.97;100.00;98696.59;1690839;84;21097;-73